Stefan Haaland

Chefscout - Rosenborg
23 Apr 2028
Sonntag
Verarbeitung

Persönlichkeit

Anpassungsfähigkeit (10) Ehrgeiz (11) Kontroverse (14) Loyalität (20) Druck (7) Professionalität (9) Fairness (15) Temperament (17)

Profil

Trainerstil Demokratisch
Lizenz Kontinentale B
Entschlossenheit 10
Menschenführung 6
Motivation 7
Disziplin 10
Arbeitszufriedenheit
100%
Ermüdung
0%
Rolle Chefscout
Gehalt 92.7K p/W
Vertrag 14.03.2029

Leistung

Verhalten Gut
Trainingseffektivität
44%
Spielerentwicklung
30%
Verletzungsprävention
30%
Taktische Umsetzung
60%

Letzte Ereignisse

Nahm an einer Scouting-Besprechung teil jetzt
Nahm an einer Scouting-Besprechung teil 7T her
Nahm an einer Scouting-Besprechung teil 7T her
Empfahl ein Transferziel 7T her
Nahm an einer Scouting-Besprechung teil 14T her
Nahm an einer Scouting-Besprechung teil 14T her
Empfahl ein Transferziel 14T her
Empfahl ein Transferziel 21T her

Aktuell beobachtet

220
Spieler Verein Status Fähigkeit Vertrauen Beobachtet Zuletzt beobachtet Letzte Stimme
Jordan Beyer Burnley Aktiv 141 / 139 40% 1 07.03.2028 -
Welington Southampton Aktiv 142 / 134 40% 1 07.03.2028 -
Koki Saito Queens Park Rangers Aktiv 131 / 135 40% 2 16.02.2028 -
Max Bird Birmingham Aktiv 137 / 135 40% 1 16.02.2028 -
Bernard Tekpetey Ludogorets Aktiv 128 / 118 40% 1 16.02.2028 -
Jonathan Norbye Haugesund Bericht bereit 104 / 111 72% 1 07.02.2028 -
Pyry Hannola Haugesund Aktiv 96 / 102 72% 1 03.02.2028 Befürworten
Dor Turgeman Rubin Verloren 145 / 143 40% 1 01.02.2028 -
Karlan Grant Tranmere Rovers Aktiv 124 / 128 40% 1 01.02.2028 -
Alexis Cuello San Lorenzo Aktiv 131 / 127 40% 1 01.02.2028 -
Lucas Souto Defensa y Justicia Verloren 130 / 118 40% 6 03.01.2028 -
Odin Bjørtuft Bodo/Glimt Aktiv 130 / 136 40% 5 03.01.2028 -
Quilindschy Hartman Burnley Aktiv 145 / 143 40% 1 03.01.2028 -
Jherson Mosquera Newell's Old Boys Aktiv 130 / 125 40% 1 30.12.2027 -
Rodrigo Herrera Newell's Old Boys Aktiv 131 / 119 40% 1 30.12.2027 -
Damián Fernández Defensa y Justicia Aktiv 122 / 131 40% 1 28.12.2027 -
Emanuel Mammana Vélez Aktiv 129 / 129 40% 1 28.12.2027 -
Joaquín García Vélez Verloren 135 / 126 40% 1 28.12.2027 -
Sondre Brunstad Fet Bodo/Glimt Aktiv 124 / 122 40% 1 27.12.2027 -
Nicolás Tripichio San Lorenzo Aktiv 129 / 120 40% 1 27.12.2027 -
Hernán de la Fuente Instituto Aktiv 122 / 126 40% 2 26.12.2027 -
Guillermo Enrique Huracán Aktiv 124 / 126 40% 1 26.12.2027 -
Nicolás Fernández Penarol Aktiv 122 / 123 40% 1 26.12.2027 -
Gastón Benedetti Estudiantes Aktiv 131 / 123 40% 2 25.12.2027 -
Ignacio Rodríguez Racing Club Aktiv 128 / 121 40% 2 25.12.2027 -
Adrián Sánchez Belgrano Aktiv 121 / 122 40% 1 25.12.2027 -
Fredrik Bjørkan Bodo/Glimt Aktiv 129 / 125 40% 3 24.12.2027 -
Emanuel Coronel Rosario Central Aktiv 126 / 130 40% 1 24.12.2027 -
César Ibáñez Huracán Aktiv 130 / 124 40% 1 23.12.2027 -
Aarón Quiros Vélez Aktiv 131 / 134 40% 2 22.12.2027 -
Emerson Royal Flamengo Aktiv 136 / 129 40% 1 22.12.2027 -
Joe Bell Viking Aktiv 128 / 123 40% 6 20.12.2027 -
Brice Ambina Valerenga Aktiv 131 / 123 40% 2 19.12.2027 -
Santiago González Tigre Aktiv 135 / 123 40% 1 08.12.2027 -
Bruno Leyes Godoy Cruz Aktiv 125 / 121 40% 1 08.12.2027 -
Gastón Hernández San Lorenzo Aktiv 128 / 130 40% 1 08.12.2027 -
Nahitan Nández Bodo/Glimt Aktiv 137 / 144 40% 1 06.12.2027 -
Matías Canedo Rampla Juniors Aktiv 81 / 97 40% 2 18.11.2027 -
Esquerdinha Notts County Aktiv 115 / 125 40% 1 18.11.2027 -
Daniel Idoko Ikorodu City Aktiv 83 / 90 40% 3 15.11.2027 -
Josh Nichols Oldham Athletic Aktiv 124 / 120 40% 2 15.11.2027 -
Nazareno Roselli Defensa y Justicia Aktiv 116 / 114 40% 3 13.11.2027 -
Joel Ezra Enyimba Aktiv 99 / 108 40% 5 13.11.2027 -
Honest Ahanor Atalanta Aktiv 136 / 147 40% 2 13.11.2027 -
Vinícius Lira São Paulo Aktiv 110 / 116 40% 1 12.11.2027 -
David Damboama El-Kanemi Warriors Aktiv 86 / 102 40% 3 11.11.2027 -
Pedro Soma San Diego Football Club Aktiv 110 / 115 40% 2 11.11.2027 -
Gideon Manaseh Ikorodu City Aktiv 90 / 101 40% 3 10.11.2027 -
Colin Guske Orlando City Aktiv 96 / 109 40% 3 10.11.2027 -
Mikkel Hope Haugesund Aktiv 108 / 111 40% 1 10.11.2027 -
Lucas Bergvall Tottenham Aktiv 150 / 158 40% 2 09.11.2027 -
Godwin Oham Warri Wolves Aktiv 88 / 81 40% 8 09.11.2027 -
Olaniyi Saheed Kwara United Aktiv 89 / 103 40% 6 09.11.2027 -
Diego Vargas Universidad de Concepcion Aktiv 94 / 92 40% 5 08.11.2027 -
Ignacio Fernández Boston River Aktiv 98 / 102 40% 3 08.11.2027 -
Josh Acheampong Everton Aktiv 140 / 142 40% 1 07.11.2027 -
Archie Gray Southampton Aktiv 155 / 150 40% 2 06.11.2027 -
Chris Rigg Sunderland Aktiv 138 / 139 40% 1 06.11.2027 -
Victor Hernandez Santa Fe Aktiv 125 / 124 40% 3 05.11.2027 -
Onyeuche Ujunwa Ikorodu City Aktiv 85 / 84 40% 2 04.11.2027 -
Tiago Gordillo San Miguel Aktiv 90 / 92 40% 3 02.11.2027 -
Francisco Machis Llaneros Aktiv 81 / 92 40% 3 02.11.2027 -
Edvard Pettersen Sandefjord Aktiv 111 / 117 40% 3 01.11.2027 -
Juan Camilo Córdoba Deportivo Pereira Aktiv 82 / 94 40% 2 01.11.2027 -
Matias Siltanen Malmo FF Aktiv 126 / 131 40% 3 07.10.2027 -
Josh King Newcastle United Aktiv 144 / 151 40% 1 07.10.2027 -
Hosea Michael Remo Stars Aktiv 80 / 82 40% 4 06.10.2027 -
Agustín De la Cuesta Racing Aktiv 117 / 113 40% 1 05.10.2027 -
Oscar Steinke Brånby Hammarby Aktiv 96 / 102 40% 2 03.10.2027 -
Sebastián Ramírez Aguilas Doradas Aktiv 103 / 116 40% 1 02.10.2027 -
Juan Diego Perdomo Depor Aktiv 82 / 98 40% 3 01.10.2027 -
Jonny Shore New York City Aktiv 101 / 109 40% 2 01.10.2027 -
Ivan Borges Defensores Aktiv 79 / 85 40% 1 30.09.2027 -
Mohamed Moussa Koïta Mathare United Aktiv 103 / 102 40% 1 26.09.2027 -
Lucas Nicol Mjondalen Aktiv 79 / 86 40% 1 25.09.2027 -
Isaías Silva Miramar Misiones Aktiv 76 / 89 40% 1 24.09.2027 -
Marco Morigi Caracas Aktiv 88 / 98 40% 1 23.09.2027 -
Azizbek To'lqinbekov Bunyodkor Aktiv 93 / 101 40% 2 22.09.2027 -
Tobias Moi Lillestrom Aktiv 110 / 107 40% 1 21.09.2027 -
Chibueze Oputa Rangers International Aktiv 80 / 98 40% 1 19.09.2027 -
Lucas Camejo River Plate Aktiv 81 / 90 40% 2 13.09.2027 -
Yury Oyarzo Racing Aktiv 89 / 103 40% 1 12.09.2027 -
Caleb Yirenkyi Coventry City Aktiv 138 / 142 40% 1 09.09.2027 -
Issa Yusuf Shooting Stars Aktiv 82 / 83 40% 1 09.09.2027 -
Óscar Hinojosa Metropolitanos Aktiv 77 / 87 40% 1 08.09.2027 -
Mpho Khethang FC Diarra Aktiv 92 / 94 40% 1 06.09.2027 -
Giovanni Leoni Lincoln City Aktiv 137 / 150 40% 1 06.09.2027 -
Simone Mazzocchi Cosenza Aktiv 118 / 114 40% 1 16.08.2027 -
Assane Diao Como Aktiv 154 / 159 40% 11 09.08.2027 -
Lorent Tolaj Plymouth Argyle Aktiv 121 / 117 40% 4 18.07.2027 -
Patrick Cutrone Monza Aktiv 135 / 128 40% 6 18.07.2027 -
Nicolò Zaniolo Udinese Aktiv 143 / 147 40% 1 18.07.2027 -
Aidomo Emakhu Oxford United Aktiv 129 / 122 40% 3 14.07.2027 -
Marezi Portsmouth Aktiv 122 / 119 40% 2 14.07.2027 -
Oli McBurnie Hull City Aktiv 140 / 134 40% 3 12.07.2027 -
Mohamed-Ali Cho Hull City Aktiv 136 / 135 40% 3 10.07.2027 -
Ilyas Ansah Hull City Aktiv 130 / 144 40% 6 10.07.2027 -
Moussa Yeo Swansea City Aktiv 123 / 129 40% 1 09.07.2027 -
Daniel Kyerewaa Reading Aktiv 119 / 113 40% 2 08.07.2027 -
Sam Greenwood Bristol City Aktiv 128 / 118 40% 4 08.07.2027 -
Lorenzo Colombo Genoa Aktiv 145 / 137 40% 4 08.07.2027 -
Callum Lang Preston Aktiv 125 / 125 40% 1 08.07.2027 -
Oladapo Afolayan Blackburn Rovers Aktiv 133 / 131 40% 5 07.07.2027 -
Hidemasa Morita Hull City Aktiv 145 / 144 40% 2 07.07.2027 -
Max Johnston Derby County Aktiv 135 / 132 40% 1 07.07.2027 -
Ali Ahmed Norwich City Aktiv 124 / 132 40% 2 05.07.2027 -
Derensili Sanches Fernandes Huddersfield Town Aktiv 133 / 124 40% 3 05.07.2027 -
Carlos Vicente Birmingham Aktiv 143 / 145 40% 2 05.07.2027 -
Tyrese Campbell Sheffield United Aktiv 127 / 124 40% 8 04.07.2027 -
Callum O'Hare Sheffield United Aktiv 138 / 128 40% 2 01.07.2027 -
Richard Koné Queens Park Rangers Aktiv 123 / 130 40% 4 30.06.2027 -
Bongani Khune SuperSport United Aktiv 140 / 121 40% 4 29.06.2027 -
Eddie Nketiah Crystal Palace Aktiv 137 / 137 40% 2 27.06.2027 -
Aaron Collins Milton Keynes Dons Aktiv 118 / 118 40% 2 27.06.2027 -
Scott Twine Bristol City Aktiv 124 / 126 40% 1 27.06.2027 -
Samuel Edozie Southampton Aktiv 125 / 126 40% 2 25.06.2027 -
Aune Heggebø West Bromwich Albion Aktiv 127 / 126 40% 2 24.06.2027 -
Jack McGlynn Stoke City Aktiv 129 / 128 40% 1 23.06.2027 -
Jason Knight Bristol City Aktiv 131 / 129 40% 1 23.06.2027 -
Joe Gelhardt Hull City Aktiv 133 / 128 40% 5 21.06.2027 -
Yousef Salech Cardiff City Aktiv 125 / 123 40% 5 20.06.2027 -
Abu Kamara Portsmouth Aktiv 120 / 123 40% 1 13.06.2027 -
Patson Daka Leicester City Aktiv 124 / 132 40% 2 12.06.2027 -
Bobby Clark Derby County Aktiv 125 / 119 40% 1 07.06.2027 -
Rocco Vata Watford Aktiv 117 / 125 40% 4 04.06.2027 -
Gianluca Scamacca Atalanta Aktiv 156 / 153 40% 4 04.06.2027 -
Josh Coburn Millwall Aktiv 120 / 118 40% 3 01.06.2027 -
Malick Fofana Sunderland Aktiv 151 / 140 40% 1 31.05.2027 -
Kyle Wootton Stockport County Aktiv 122 / 116 40% 5 30.05.2027 -
Adrien Truffert Bournemouth Aktiv 155 / 144 40% 1 23.05.2027 -
Keinan Davis Udinese Aktiv 129 / 135 40% 1 21.05.2027 -
Nordi Mukiele Sunderland Aktiv 152 / 141 40% 1 18.05.2027 -
Finn Azaz Southampton Aktiv 128 / 126 40% 1 17.05.2027 -
Matt O'Riley Brighton Aktiv 152 / 141 40% 1 17.05.2027 -
Cameron Archer Southampton Aktiv 124 / 120 40% 1 14.05.2027 -
Brian Brobbey Sunderland Aktiv 141 / 145 40% 1 14.05.2027 -
Oswin Appollis Orlando Pirates Aktiv 117 / 121 40% 4 11.05.2027 -
Sorba Thomas Stoke City Aktiv 138 / 128 40% 2 11.05.2027 -
Amine Adli Bournemouth Aktiv 144 / 143 40% 1 11.05.2027 -
Zian Flemming Ipswich Town Aktiv 128 / 127 40% 2 08.05.2027 -
Wilson Isidor Sunderland Aktiv 138 / 139 40% 4 05.05.2027 -
Giacomo Raspadori Atalanta Aktiv 151 / 138 40% 2 29.04.2027 -
Che Adams Torino Aktiv 137 / 132 40% 2 28.04.2027 -
Ioannis Pittas CSKA Sofia Aktiv 116 / 124 40% 1 18.03.2027 -
David Romero Parma Aktiv 125 / 123 40% 1 17.03.2027 -
John Yeboah Venezia Aktiv 123 / 116 40% 1 17.03.2027 -
Germán Barbas Burgos Aktiv 107 / 120 40% 1 02.03.2027 -
Vegard Erlien Tromso Aktiv 131 / 114 40% 1 01.02.2027 Mehr Infos nötig
Kwadwo Duah Ludogorets Aktiv 127 / 122 40% 1 01.02.2027 -
Franko Kovačević Ferencvaros Aktiv 115 / 127 40% 1 01.02.2027 -
Osher Davida Maccabi Tel Aviv Aktiv 111 / 116 40% 2 31.01.2027 -
Armstrong Oko-Flex Levski Aktiv 111 / 131 40% 5 30.01.2027 -
Themba Williams Ajax Cape Town Aktiv 108 / 126 40% 7 29.01.2027 -
Hannibal Burnley Aktiv 132 / 130 40% 1 29.01.2027 -
Stav Toriel Hapoel Tel Aviv Aktiv 125 / 117 40% 5 28.01.2027 -
Celso Sidney Cherno More Aktiv 105 / 111 40% 1 28.01.2027 -
João Félix Dinamo Moscow Verloren 148 / 155 40% 6 27.01.2027 -
Etiosa Ighodaro Kaizer Chiefs Aktiv 107 / 116 40% 1 27.01.2027 -
Bongani Zungu Ajax Cape Town Aktiv 136 / 123 40% 4 26.01.2027 -
Erik Botheim Viking Aktiv 124 / 125 40% 3 23.01.2027 -
Wandile Duba ASO Chlef Aktiv 100 / 107 40% 2 21.01.2027 -
Aldair Faustino Levski Aktiv 110 / 126 40% 2 21.01.2027 -
Álex Centelles Levski Aktiv 137 / 127 40% 1 21.01.2027 -
Matej Trusa DAC Dunajska Streda Aktiv 125 / 107 40% 1 20.01.2027 -
Erick Dolly Black Aces Aktiv 103 / 111 40% 1 20.01.2027 -
Petar Stanić Ludogorets Aktiv 134 / 139 40% 9 16.01.2027 -
Esequiel Barco Spartak Moscow Aktiv 139 / 130 40% 2 16.01.2027 -
Bradley Zwane SuperSport United Aktiv 112 / 104 40% 5 10.01.2027 -
Stephen Amankona Aduana Stars Aktiv 104 / 103 40% 1 07.01.2027 -
Ivo Mammini Beitar Jerusalem Aktiv 109 / 121 40% 1 07.01.2027 -
Job Ochieng Real Sociedad Aktiv 112 / 111 40% 1 06.01.2027 -
Suleiman Camara Slovan Bratislava Aktiv 125 / 126 40% 4 02.01.2027 -
Iker Pozo Rodina Aktiv 106 / 121 40% 1 02.01.2027 -
Evidence Makgopa Orlando Pirates Aktiv 112 / 107 40% 2 31.12.2026 -
José Martínes CSKA 1948 Aktiv 106 / 100 40% 2 29.12.2026 -
Peter Valjent FK Senica Aktiv 110 / 112 40% 1 29.12.2026 -
Ronaldo Vásquez Sumgayit Aktiv 129 / 113 40% 1 28.12.2026 -
Léo Pereira CSKA Sofia Aktiv 122 / 128 40% 1 25.12.2026 -
Marquinhos Spartak Moscow Aktiv 122 / 123 40% 3 23.12.2026 -
Matěj Koubek MFK Ruzomberok Aktiv 111 / 105 40% 1 22.12.2026 -
Isaac Matondo Koper Aktiv 114 / 97 40% 1 22.12.2026 -
Ammar Ramadan DAC Dunajska Streda Aktiv 132 / 116 40% 2 21.12.2026 -
Radek Šiler Podbrezova Aktiv 108 / 120 40% 1 21.12.2026 -
Jacques Siwe Rubin Aktiv 124 / 117 40% 1 20.12.2026 -
Thalente Mbatha Orlando Pirates Aktiv 117 / 128 40% 1 17.12.2026 -
Marcelo Allende Mamelodi Sundowns Aktiv 137 / 133 40% 6 14.12.2026 -
Adu Ares Eibar Aktiv 128 / 113 40% 3 13.12.2026 -
Evangelos Patoulidis Sandefjord Aktiv 117 / 115 40% 3 10.12.2026 -
Manu Morlanes Mallorca Aktiv 134 / 136 40% 2 09.12.2026 -
Dennis Gjengaar Valerenga Aktiv 108 / 111 40% 1 09.12.2026 -
Sergey Pinyaev Lokomotiv Moscow Aktiv 123 / 124 40% 6 06.12.2026 -
Danil Glebov Dinamo Moscow Aktiv 134 / 122 40% 1 06.12.2026 -
Rubens Dinamo Moscow Aktiv 130 / 141 40% 1 05.12.2026 -
Reda Khadra Qarabag Aktiv 129 / 132 40% 3 28.11.2026 -
Kirill Glebov CSKA Moscow Aktiv 132 / 134 40% 3 27.11.2026 -
Ole-Didrik Blomberg Bodo/Glimt Aktiv 124 / 135 40% 4 25.11.2026 -
Uba Charles Aalesund Aktiv 107 / 121 40% 2 21.11.2026 -
Kevin Krygård Lillestrom Aktiv 118 / 125 40% 3 14.11.2026 -
Matthias Seidl Rapid Wien Aktiv 119 / 129 40% 2 12.11.2026 -
Gedson Fernandes Spartak Moscow Aktiv 145 / 130 40% 2 10.11.2026 -
Alexandr Chernikov Krasnodar Aktiv 136 / 131 40% 1 09.11.2026 -
Jakob Dunsby Sandefjord Aktiv 116 / 112 40% 1 08.11.2026 -
Lechi Sadulaev Akhmat Grozny Aktiv 129 / 123 40% 1 06.11.2026 -
Tyrhys Dolan Espanyol Aktiv 134 / 135 40% 5 05.11.2026 -
Sturla Ottesen Lillestrom Aktiv 110 / 105 40% 1 03.11.2026 -
Tio Cipot NK Maribor Aktiv 122 / 128 40% 1 01.11.2026 -
Andrei Cordea CFR Cluj Aktiv 126 / 117 40% 1 27.10.2026 -
Mariano Bracamonte Deportivo Riestra Aktiv 119 / 122 40% 3 13.10.2026 -
David Edvardsson Tromso Aktiv 114 / 118 40% 2 12.10.2026 -
Sander Risan Mørk Sandefjord Aktiv 115 / 115 40% 2 10.10.2026 -
Markus Soomets IK Start Aktiv 122 / 107 40% 1 09.10.2026 -
Mehdi Hashemnejad Tractor Aktiv 114 / 104 40% 2 02.10.2026 -
Amir Hossein Hosseinzadeh Tractor Aktiv 123 / 134 40% 1 22.09.2026 -
Majid Jahanbakhsh Rah Ahan Aktiv 132 / 137 40% 1 22.09.2026 -
Oston O'runov Persepolis Aktiv 118 / 117 40% 1 21.09.2026 -
Thomas Carrique Andorra Aktiv 112 / 118 40% 1 18.09.2026 -
Ramiro Ruiz Rodríguez Atlético Tucumán Aktiv 123 / 127 40% 1 16.09.2026 -
Petar Mićin Viking Aktiv 113 / 119 40% 1 13.09.2026 -
Oufa Shobeir MC Alger Aktiv 120 / 122 40% 1 10.08.2026 -
Florin Tănase Omonoia Aktiv 133 / 131 40% 1 04.08.2026 -